RYR9CE LFML-LFOT
Flight info
| Callsign | RYR9CE |
|---|---|
| Flight time | 1h 12m |
| Altitude | 34000 |
| Route | FJR DCT GAI DCT PERIG DCT POI/N0334F180 B19 AMB |
| Aircraft | B738/M-SDE3FGILRWY/SB1 |
Departure
| Time | 2026-04-24 09:16 |
|---|---|
| Airport | Marseille Provence Airport (LFML) |
Arrival
| Time | 2026-04-24 10:29 |
|---|---|
| Airport | Tours Val de Loire Airport (LFOT) |
| Time | Latitude | Longitude | Altitude | Speed | Heading |
|---|---|---|---|---|---|
| 2026-04-24 08:30 | 43.44268 | 5.21683 | 36 ft | 0 kts | 269° |
| 2026-04-24 09:12 | 43.44269 | 5.21646 | 36 ft | 11 kts | 271° |
| 2026-04-24 09:12 | 43.44221 | 5.21548 | 36 ft | 13 kts | 223° |
| 2026-04-24 09:12 | 43.44157 | 5.21465 | 35 ft | 13 kts | 223° |
| 2026-04-24 09:12 | 43.44094 | 5.21383 | 36 ft | 12 kts | 223° |
| 2026-04-24 09:13 | 43.44078 | 5.21269 | 36 ft | 15 kts | 298° |
| 2026-04-24 09:13 | 43.44165 | 5.21139 | 36 ft | 22 kts | 314° |
| 2026-04-24 09:13 | 43.44273 | 5.20975 | 36 ft | 23 kts | 302° |
| 2026-04-24 09:13 | 43.44359 | 5.20795 | 36 ft | 22 kts | 313° |
| 2026-04-24 09:14 | 43.44465 | 5.20645 | 36 ft | 22 kts | 314° |
| 2026-04-24 09:14 | 43.44567 | 5.20497 | 36 ft | 21 kts | 314° |
| 2026-04-24 09:14 | 43.44667 | 5.20355 | 36 ft | 20 kts | 314° |
| 2026-04-24 09:14 | 43.44764 | 5.20217 | 36 ft | 20 kts | 314° |
| 2026-04-24 09:15 | 43.44858 | 5.20084 | 36 ft | 19 kts | 314° |
| 2026-04-24 09:15 | 43.44948 | 5.19953 | 36 ft | 18 kts | 313° |
| 2026-04-24 09:15 | 43.44951 | 5.19806 | 35 ft | 18 kts | 222° |
| 2026-04-24 09:15 | 43.44848 | 5.19832 | 34 ft | 22 kts | 135° |
| 2026-04-24 09:16 | 43.44572 | 5.20222 | 35 ft | 94 kts | 134° |
| 2026-04-24 09:16 | 43.43961 | 5.21089 | 36 ft | 156 kts | 134° |
| 2026-04-24 09:16 | 43.43158 | 5.22247 | 566 ft | 166 kts | 135° |
| 2026-04-24 09:16 | 43.42347 | 5.23341 | 1425 ft | 164 kts | 141° |
| 2026-04-24 09:17 | 43.41221 | 5.23915 | 1864 ft | 191 kts | 174° |
| 2026-04-24 09:17 | 43.39926 | 5.24581 | 2320 ft | 209 kts | 140° |
| 2026-04-24 09:17 | 43.38775 | 5.25870 | 2944 ft | 217 kts | 143° |
| 2026-04-24 09:17 | 43.37537 | 5.27090 | 3670 ft | 222 kts | 145° |
| 2026-04-24 09:18 | 43.36262 | 5.28288 | 4627 ft | 220 kts | 146° |
| 2026-04-24 09:18 | 43.34809 | 5.28901 | 5513 ft | 224 kts | 183° |
| 2026-04-24 09:18 | 43.33330 | 5.28192 | 6123 ft | 239 kts | 217° |
| 2026-04-24 09:18 | 43.32186 | 5.26372 | 6419 ft | 265 kts | 234° |
| 2026-04-24 09:19 | 43.31138 | 5.24231 | 7050 ft | 275 kts | 236° |
| 2026-04-24 09:19 | 43.30075 | 5.22020 | 7829 ft | 279 kts | 236° |
| 2026-04-24 09:19 | 43.28997 | 5.19788 | 8647 ft | 282 kts | 235° |
| 2026-04-24 09:19 | 43.27897 | 5.17533 | 9448 ft | 286 kts | 235° |
| 2026-04-24 09:20 | 43.26777 | 5.15250 | 10242 ft | 290 kts | 235° |
| 2026-04-24 09:20 | 43.25619 | 5.12906 | 10661 ft | 308 kts | 235° |
| 2026-04-24 09:20 | 43.24368 | 5.10383 | 10900 ft | 330 kts | 235° |
| 2026-04-24 09:20 | 43.23055 | 5.07744 | 11480 ft | 338 kts | 235° |
| 2026-04-24 09:21 | 43.21798 | 5.05006 | 12215 ft | 343 kts | 245° |
| 2026-04-24 09:21 | 43.21243 | 5.01827 | 13002 ft | 346 kts | 267° |
| 2026-04-24 09:21 | 43.21563 | 4.98560 | 13826 ft | 350 kts | 287° |
| 2026-04-24 09:21 | 43.22353 | 4.95390 | 14596 ft | 353 kts | 290° |
| 2026-04-24 09:22 | 43.23201 | 4.92268 | 15357 ft | 355 kts | 291° |
| 2026-04-24 09:22 | 43.24071 | 4.89082 | 16146 ft | 358 kts | 291° |
| 2026-04-24 09:22 | 43.24934 | 4.85868 | 16934 ft | 360 kts | 291° |
| 2026-04-24 09:22 | 43.25789 | 4.82627 | 17713 ft | 363 kts | 291° |
| 2026-04-24 09:23 | 43.26642 | 4.79353 | 18474 ft | 366 kts | 291° |
| 2026-04-24 09:23 | 43.27497 | 4.76049 | 19136 ft | 369 kts | 291° |
| 2026-04-24 09:23 | 43.28369 | 4.72729 | 19777 ft | 371 kts | 294° |
| 2026-04-24 09:23 | 43.29483 | 4.69526 | 20410 ft | 373 kts | 300° |
| 2026-04-24 09:24 | 43.30757 | 4.66409 | 21062 ft | 375 kts | 302° |
| 2026-04-24 09:24 | 43.32067 | 4.63300 | 21695 ft | 378 kts | 302° |
| 2026-04-24 09:24 | 43.33375 | 4.60154 | 22288 ft | 382 kts | 301° |
| 2026-04-24 09:24 | 43.34677 | 4.56956 | 22875 ft | 385 kts | 301° |
| 2026-04-24 09:25 | 43.35976 | 4.53714 | 23469 ft | 389 kts | 301° |
| 2026-04-24 09:25 | 43.37276 | 4.50439 | 23992 ft | 392 kts | 301° |
| 2026-04-24 09:25 | 43.38583 | 4.47137 | 24474 ft | 395 kts | 300° |
| 2026-04-24 09:25 | 43.39889 | 4.43806 | 24960 ft | 397 kts | 300° |
| 2026-04-24 09:26 | 43.41198 | 4.40443 | 25420 ft | 401 kts | 300° |
| 2026-04-24 09:26 | 43.42518 | 4.37044 | 25872 ft | 404 kts | 300° |
| 2026-04-24 09:26 | 43.43845 | 4.33625 | 26312 ft | 407 kts | 300° |
| 2026-04-24 09:26 | 43.45181 | 4.30179 | 26763 ft | 409 kts | 300° |
| 2026-04-24 09:27 | 43.46525 | 4.26715 | 27203 ft | 412 kts | 300° |
| 2026-04-24 09:27 | 43.47879 | 4.23219 | 27636 ft | 415 kts | 300° |
| 2026-04-24 09:27 | 43.49241 | 4.19702 | 28064 ft | 418 kts | 300° |
| 2026-04-24 09:27 | 43.50611 | 4.16159 | 28486 ft | 420 kts | 300° |
| 2026-04-24 09:28 | 43.51982 | 4.12609 | 29037 ft | 419 kts | 300° |
| 2026-04-24 09:28 | 43.53345 | 4.09075 | 29652 ft | 416 kts | 300° |
| 2026-04-24 09:28 | 43.54698 | 4.05561 | 30255 ft | 415 kts | 300° |
| 2026-04-24 09:28 | 43.56049 | 4.02053 | 30713 ft | 414 kts | 300° |
| 2026-04-24 09:29 | 43.57393 | 3.98545 | 31155 ft | 413 kts | 299° |
| 2026-04-24 09:29 | 43.58426 | 3.94840 | 31593 ft | 416 kts | 287° |
| 2026-04-24 09:29 | 43.59150 | 3.90990 | 32080 ft | 414 kts | 286° |
| 2026-04-24 09:29 | 43.59827 | 3.87136 | 32536 ft | 413 kts | 285° |
| 2026-04-24 09:30 | 43.60493 | 3.83282 | 32962 ft | 412 kts | 285° |
| 2026-04-24 09:30 | 43.61154 | 3.79497 | 33399 ft | 411 kts | 286° |
| 2026-04-24 09:30 | 43.61832 | 3.75669 | 33846 ft | 409 kts | 286° |
| 2026-04-24 09:30 | 43.62515 | 3.71858 | 34200 ft | 410 kts | 286° |
| 2026-04-24 09:31 | 43.63915 | 3.64135 | 34175 ft | 414 kts | 286° |
| 2026-04-24 09:31 | 43.65300 | 3.56502 | 34178 ft | 406 kts | 286° |
| 2026-04-24 09:32 | 43.66675 | 3.48906 | 34183 ft | 409 kts | 286° |
| 2026-04-24 09:32 | 43.68051 | 3.41276 | 34186 ft | 410 kts | 286° |
| 2026-04-24 09:33 | 43.69427 | 3.33612 | 34184 ft | 411 kts | 285° |
| 2026-04-24 09:33 | 43.70799 | 3.25932 | 34167 ft | 412 kts | 285° |
| 2026-04-24 09:34 | 43.72164 | 3.18257 | 34180 ft | 411 kts | 285° |
| 2026-04-24 09:34 | 43.73523 | 3.10590 | 34166 ft | 409 kts | 285° |
| 2026-04-24 09:35 | 43.74868 | 3.02965 | 34172 ft | 407 kts | 285° |
| 2026-04-24 09:35 | 43.76201 | 2.95376 | 34163 ft | 405 kts | 285° |
| 2026-04-24 09:36 | 43.77523 | 2.87818 | 34158 ft | 403 kts | 285° |
| 2026-04-24 09:36 | 43.78835 | 2.80287 | 34154 ft | 402 kts | 285° |
| 2026-04-24 09:37 | 43.80142 | 2.72759 | 34147 ft | 402 kts | 285° |
| 2026-04-24 09:37 | 43.81443 | 2.65229 | 34138 ft | 402 kts | 285° |
| 2026-04-24 09:38 | 43.82740 | 2.57691 | 34130 ft | 403 kts | 285° |
| 2026-04-24 09:38 | 43.84034 | 2.50140 | 34127 ft | 403 kts | 285° |
| 2026-04-24 09:39 | 43.85325 | 2.42571 | 34130 ft | 404 kts | 285° |
| 2026-04-24 09:39 | 43.86614 | 2.34984 | 34124 ft | 405 kts | 284° |
| 2026-04-24 09:40 | 43.87900 | 2.27379 | 34123 ft | 406 kts | 284° |
| 2026-04-24 09:40 | 43.88966 | 2.21050 | 34126 ft | 406 kts | 284° |
| 2026-04-24 09:41 | 43.90247 | 2.13416 | 34126 ft | 406 kts | 284° |
| 2026-04-24 09:41 | 43.91524 | 2.05779 | 34111 ft | 407 kts | 284° |
| 2026-04-24 09:42 | 43.92797 | 1.98131 | 34112 ft | 407 kts | 284° |
| 2026-04-24 09:42 | 43.94068 | 1.90465 | 34113 ft | 408 kts | 284° |
| 2026-04-24 09:43 | 43.96104 | 1.83241 | 34128 ft | 403 kts | 308° |
| 2026-04-24 09:43 | 43.98067 | 1.80478 | 34105 ft | 403 kts | 324° |
| 2026-04-24 09:43 | 44.00482 | 1.78507 | 34134 ft | 402 kts | 332° |
| 2026-04-24 09:44 | 44.05481 | 1.74973 | 34121 ft | 404 kts | 333° |
| 2026-04-24 09:44 | 44.10499 | 1.71446 | 34118 ft | 405 kts | 332° |
| 2026-04-24 09:45 | 44.15510 | 1.67861 | 34116 ft | 405 kts | 332° |
| 2026-04-24 09:45 | 44.20521 | 1.64238 | 34110 ft | 406 kts | 332° |
| 2026-04-24 09:46 | 44.25533 | 1.60598 | 34112 ft | 406 kts | 332° |
| 2026-04-24 09:46 | 44.30551 | 1.56946 | 34114 ft | 407 kts | 332° |
| 2026-04-24 09:47 | 44.35564 | 1.53290 | 34120 ft | 407 kts | 332° |
| 2026-04-24 09:47 | 44.40577 | 1.49628 | 34113 ft | 406 kts | 332° |
| 2026-04-24 09:48 | 44.45583 | 1.45964 | 34119 ft | 406 kts | 332° |
| 2026-04-24 09:48 | 44.50580 | 1.42300 | 34119 ft | 405 kts | 332° |
| 2026-04-24 09:49 | 44.55569 | 1.38635 | 34125 ft | 405 kts | 331° |
| 2026-04-24 09:49 | 44.60555 | 1.34963 | 34121 ft | 404 kts | 331° |
| 2026-04-24 09:50 | 44.65531 | 1.31292 | 34129 ft | 404 kts | 331° |
| 2026-04-24 09:50 | 44.70506 | 1.27615 | 34123 ft | 404 kts | 331° |
| 2026-04-24 09:51 | 44.75482 | 1.23931 | 34130 ft | 404 kts | 331° |
| 2026-04-24 09:51 | 44.80456 | 1.20239 | 34115 ft | 404 kts | 331° |
| 2026-04-24 09:52 | 44.85432 | 1.16541 | 34111 ft | 405 kts | 331° |
| 2026-04-24 09:52 | 44.90409 | 1.12833 | 34137 ft | 404 kts | 331° |
| 2026-04-24 09:53 | 44.95381 | 1.09123 | 34111 ft | 405 kts | 331° |
| 2026-04-24 09:53 | 45.00358 | 1.05402 | 34122 ft | 405 kts | 331° |
| 2026-04-24 09:54 | 45.05301 | 1.01702 | 34120 ft | 404 kts | 331° |
| 2026-04-24 09:54 | 45.10268 | 0.97972 | 34115 ft | 404 kts | 331° |
| 2026-04-24 09:55 | 45.15497 | 0.95053 | 34115 ft | 405 kts | 341° |
| 2026-04-24 09:55 | 45.20885 | 0.92694 | 34100 ft | 405 kts | 341° |
| 2026-04-24 09:56 | 45.26268 | 0.90342 | 34100 ft | 405 kts | 341° |
| 2026-04-24 09:56 | 45.31640 | 0.87956 | 34101 ft | 404 kts | 341° |
| 2026-04-24 09:57 | 45.36996 | 0.85553 | 34100 ft | 404 kts | 341° |
| 2026-04-24 09:57 | 45.42346 | 0.83143 | 34125 ft | 403 kts | 341° |
| 2026-04-24 09:58 | 45.47689 | 0.80731 | 34107 ft | 402 kts | 341° |
| 2026-04-24 09:58 | 45.53016 | 0.78321 | 34110 ft | 399 kts | 341° |
| 2026-04-24 09:59 | 45.58266 | 0.75943 | 34119 ft | 394 kts | 341° |
| 2026-04-24 09:59 | 45.63507 | 0.73563 | 33868 ft | 397 kts | 341° |
| 2026-04-24 10:00 | 45.66117 | 0.72376 | 33600 ft | 390 kts | 341° |
| 2026-04-24 10:00 | 45.68693 | 0.71203 | 33221 ft | 386 kts | 341° |
| 2026-04-24 10:00 | 45.71241 | 0.70043 | 32821 ft | 383 kts | 341° |
| 2026-04-24 10:00 | 45.73772 | 0.68890 | 32450 ft | 380 kts | 340° |
| 2026-04-24 10:01 | 45.76281 | 0.67745 | 32086 ft | 377 kts | 340° |
| 2026-04-24 10:01 | 45.78774 | 0.66607 | 31710 ft | 375 kts | 340° |
| 2026-04-24 10:01 | 45.81248 | 0.65475 | 31349 ft | 372 kts | 340° |
| 2026-04-24 10:01 | 45.83703 | 0.64351 | 30996 ft | 370 kts | 340° |
| 2026-04-24 10:02 | 45.86147 | 0.63231 | 30640 ft | 368 kts | 340° |
| 2026-04-24 10:02 | 45.88576 | 0.62116 | 30287 ft | 365 kts | 340° |
| 2026-04-24 10:02 | 45.90996 | 0.61005 | 29874 ft | 364 kts | 340° |
| 2026-04-24 10:02 | 45.93394 | 0.59903 | 29479 ft | 360 kts | 340° |
| 2026-04-24 10:03 | 45.95735 | 0.58826 | 29106 ft | 357 kts | 340° |
| 2026-04-24 10:03 | 45.98089 | 0.57743 | 28739 ft | 353 kts | 340° |
| 2026-04-24 10:03 | 46.00422 | 0.56668 | 28363 ft | 350 kts | 340° |
| 2026-04-24 10:03 | 46.02735 | 0.55603 | 27998 ft | 348 kts | 340° |
| 2026-04-24 10:04 | 46.05028 | 0.54544 | 27629 ft | 345 kts | 340° |
| 2026-04-24 10:04 | 46.07308 | 0.53491 | 27276 ft | 342 kts | 340° |
| 2026-04-24 10:04 | 46.09565 | 0.52448 | 26916 ft | 340 kts | 340° |
| 2026-04-24 10:04 | 46.11813 | 0.51407 | 26559 ft | 338 kts | 340° |
| 2026-04-24 10:05 | 46.14041 | 0.50376 | 26205 ft | 336 kts | 340° |
| 2026-04-24 10:05 | 46.16259 | 0.49347 | 25866 ft | 334 kts | 340° |
| 2026-04-24 10:05 | 46.18464 | 0.48324 | 25516 ft | 332 kts | 340° |
| 2026-04-24 10:05 | 46.20657 | 0.47306 | 25179 ft | 330 kts | 340° |
| 2026-04-24 10:06 | 46.22841 | 0.46292 | 24834 ft | 329 kts | 340° |
| 2026-04-24 10:06 | 46.27181 | 0.44272 | 24148 ft | 327 kts | 340° |
| 2026-04-24 10:06 | 46.29341 | 0.43266 | 23808 ft | 325 kts | 340° |
| 2026-04-24 10:07 | 46.31492 | 0.42264 | 23418 ft | 324 kts | 341° |
| 2026-04-24 10:07 | 46.33635 | 0.41264 | 23044 ft | 323 kts | 341° |
| 2026-04-24 10:07 | 46.35766 | 0.40269 | 22674 ft | 320 kts | 341° |
| 2026-04-24 10:07 | 46.37878 | 0.39282 | 22335 ft | 318 kts | 341° |
| 2026-04-24 10:08 | 46.39976 | 0.38301 | 22000 ft | 316 kts | 341° |
| 2026-04-24 10:08 | 46.42062 | 0.37325 | 21658 ft | 314 kts | 341° |
| 2026-04-24 10:08 | 46.44136 | 0.36354 | 21326 ft | 312 kts | 341° |
| 2026-04-24 10:08 | 46.46200 | 0.35387 | 20985 ft | 311 kts | 341° |
| 2026-04-24 10:09 | 46.48250 | 0.34426 | 20660 ft | 309 kts | 341° |
| 2026-04-24 10:09 | 46.50294 | 0.33468 | 20330 ft | 308 kts | 341° |
| 2026-04-24 10:09 | 46.52298 | 0.32526 | 20009 ft | 306 kts | 341° |
| 2026-04-24 10:09 | 46.54319 | 0.31574 | 19682 ft | 305 kts | 341° |
| 2026-04-24 10:10 | 46.56342 | 0.30686 | 19355 ft | 304 kts | 350° |
| 2026-04-24 10:10 | 46.58449 | 0.30708 | 19045 ft | 304 kts | 10° |
| 2026-04-24 10:10 | 46.60422 | 0.31734 | 18796 ft | 302 kts | 26° |
| 2026-04-24 10:10 | 46.62233 | 0.33269 | 18506 ft | 301 kts | 30° |
| 2026-04-24 10:11 | 46.64014 | 0.34878 | 18145 ft | 301 kts | 30° |
| 2026-04-24 10:11 | 46.65787 | 0.36497 | 17797 ft | 300 kts | 31° |
| 2026-04-24 10:11 | 46.67557 | 0.38110 | 17454 ft | 299 kts | 31° |
| 2026-04-24 10:11 | 46.69319 | 0.39707 | 17128 ft | 298 kts | 31° |
| 2026-04-24 10:12 | 46.71073 | 0.41290 | 16820 ft | 296 kts | 32° |
| 2026-04-24 10:12 | 46.72822 | 0.42864 | 16501 ft | 295 kts | 32° |
| 2026-04-24 10:12 | 46.74571 | 0.44435 | 16181 ft | 295 kts | 32° |
| 2026-04-24 10:12 | 46.76315 | 0.46000 | 15853 ft | 294 kts | 33° |
| 2026-04-24 10:13 | 46.78052 | 0.47558 | 15552 ft | 293 kts | 33° |
| 2026-04-24 10:13 | 46.79787 | 0.49115 | 15237 ft | 293 kts | 33° |
| 2026-04-24 10:13 | 46.81522 | 0.50672 | 14922 ft | 292 kts | 33° |
| 2026-04-24 10:13 | 46.83250 | 0.52223 | 14610 ft | 291 kts | 34° |
| 2026-04-24 10:14 | 46.84924 | 0.53726 | 14313 ft | 291 kts | 34° |
| 2026-04-24 10:14 | 46.86648 | 0.55277 | 14009 ft | 291 kts | 34° |
| 2026-04-24 10:14 | 46.88373 | 0.56829 | 13650 ft | 291 kts | 34° |
| 2026-04-24 10:14 | 46.90094 | 0.58378 | 13327 ft | 290 kts | 34° |
| 2026-04-24 10:15 | 46.91808 | 0.59924 | 12994 ft | 290 kts | 34° |
| 2026-04-24 10:15 | 46.93522 | 0.61469 | 12677 ft | 289 kts | 34° |
| 2026-04-24 10:15 | 46.95234 | 0.63013 | 12355 ft | 288 kts | 34° |
| 2026-04-24 10:15 | 46.96937 | 0.64552 | 12039 ft | 287 kts | 34° |
| 2026-04-24 10:16 | 46.98635 | 0.66085 | 11735 ft | 286 kts | 34° |
| 2026-04-24 10:16 | 47.00330 | 0.67619 | 11420 ft | 286 kts | 34° |
| 2026-04-24 10:16 | 47.02024 | 0.69153 | 11111 ft | 286 kts | 34° |
| 2026-04-24 10:16 | 47.03404 | 0.70402 | 10855 ft | 286 kts | 34° |
| 2026-04-24 10:17 | 47.05094 | 0.71936 | 10537 ft | 286 kts | 34° |
| 2026-04-24 10:17 | 47.06781 | 0.73467 | 10296 ft | 284 kts | 34° |
| 2026-04-24 10:17 | 47.08443 | 0.74974 | 10119 ft | 279 kts | 35° |
| 2026-04-24 10:17 | 47.10098 | 0.76480 | 9782 ft | 280 kts | 35° |
| 2026-04-24 10:18 | 47.11751 | 0.77983 | 9466 ft | 279 kts | 35° |
| 2026-04-24 10:18 | 47.13402 | 0.79485 | 9161 ft | 279 kts | 35° |
| 2026-04-24 10:18 | 47.15050 | 0.80984 | 8861 ft | 278 kts | 35° |
| 2026-04-24 10:18 | 47.16692 | 0.82479 | 8557 ft | 277 kts | 35° |
| 2026-04-24 10:19 | 47.18312 | 0.83950 | 8428 ft | 270 kts | 35° |
| 2026-04-24 10:19 | 47.19898 | 0.85390 | 8209 ft | 267 kts | 35° |
| 2026-04-24 10:19 | 47.21478 | 0.86826 | 7956 ft | 267 kts | 35° |
| 2026-04-24 10:19 | 47.23054 | 0.88259 | 7695 ft | 266 kts | 35° |
| 2026-04-24 10:20 | 47.24622 | 0.89685 | 7423 ft | 265 kts | 35° |
| 2026-04-24 10:20 | 47.26189 | 0.91111 | 7218 ft | 264 kts | 35° |
| 2026-04-24 10:20 | 47.27849 | 0.92267 | 6924 ft | 269 kts | 15° |
| 2026-04-24 10:20 | 47.29727 | 0.92180 | 6679 ft | 276 kts | 345° |
| 2026-04-24 10:21 | 47.31370 | 0.90734 | 6418 ft | 280 kts | 314° |
| 2026-04-24 10:21 | 47.32299 | 0.88276 | 6321 ft | 273 kts | 282° |
| 2026-04-24 10:21 | 47.32284 | 0.85601 | 6260 ft | 253 kts | 251° |
| 2026-04-24 10:21 | 47.31578 | 0.83390 | 6114 ft | 233 kts | 232° |
| 2026-04-24 10:22 | 47.30653 | 0.81510 | 6040 ft | 216 kts | 229° |
| 2026-04-24 10:22 | 47.29783 | 0.79809 | 5930 ft | 205 kts | 228° |
| 2026-04-24 10:22 | 47.28954 | 0.78177 | 5860 ft | 194 kts | 228° |
| 2026-04-24 10:22 | 47.28164 | 0.76612 | 5602 ft | 189 kts | 228° |
| 2026-04-24 10:23 | 47.27386 | 0.75063 | 5273 ft | 188 kts | 228° |
| 2026-04-24 10:23 | 47.26614 | 0.73525 | 5021 ft | 186 kts | 229° |
| 2026-04-24 10:23 | 47.25845 | 0.71985 | 4697 ft | 187 kts | 229° |
| 2026-04-24 10:23 | 47.25079 | 0.70455 | 4396 ft | 186 kts | 230° |
| 2026-04-24 10:24 | 47.24697 | 0.68646 | 4032 ft | 193 kts | 277° |
| 2026-04-24 10:24 | 47.25330 | 0.66990 | 3710 ft | 189 kts | 328° |
| 2026-04-24 10:24 | 47.26516 | 0.66548 | 3532 ft | 171 kts | 10° |
| 2026-04-24 10:24 | 47.27711 | 0.66774 | 3277 ft | 176 kts | 15° |
| 2026-04-24 10:25 | 47.28895 | 0.67095 | 3081 ft | 170 kts | 18° |
| 2026-04-24 10:25 | 47.30071 | 0.67507 | 2833 ft | 177 kts | 20° |
| 2026-04-24 10:25 | 47.31255 | 0.67957 | 2572 ft | 173 kts | 21° |
| 2026-04-24 10:25 | 47.32391 | 0.68430 | 2369 ft | 168 kts | 21° |
| 2026-04-24 10:26 | 47.33531 | 0.68875 | 2149 ft | 173 kts | 21° |
| 2026-04-24 10:26 | 47.34699 | 0.69308 | 1899 ft | 171 kts | 21° |
| 2026-04-24 10:26 | 47.35819 | 0.69779 | 1718 ft | 166 kts | 22° |
| 2026-04-24 10:26 | 47.36931 | 0.70232 | 1471 ft | 162 kts | 21° |
| 2026-04-24 10:27 | 47.37968 | 0.70654 | 1271 ft | 148 kts | 21° |
| 2026-04-24 10:27 | 47.38937 | 0.71042 | 1088 ft | 144 kts | 20° |
| 2026-04-24 10:27 | 47.39916 | 0.71437 | 906 ft | 145 kts | 19° |
| 2026-04-24 10:27 | 47.40866 | 0.71812 | 683 ft | 139 kts | 19° |
| 2026-04-24 10:28 | 47.41475 | 0.72058 | 533 ft | 136 kts | 20° |
| 2026-04-24 10:28 | 47.42400 | 0.72429 | 377 ft | 137 kts | 19° |
| 2026-04-24 10:28 | 47.43203 | 0.72755 | 364 ft | 92 kts | 15° |
| 2026-04-24 10:28 | 47.43652 | 0.72936 | 371 ft | 53 kts | 15° |
| 2026-04-24 10:29 | 47.43926 | 0.73045 | 364 ft | 37 kts | 15° |
| 2026-04-24 10:29 | 47.44158 | 0.73140 | 366 ft | 27 kts | 15° |
| 2026-04-24 10:29 | 47.44276 | 0.73067 | 363 ft | 20 kts | 292° |
| 2026-04-24 10:29 | 47.44275 | 0.72872 | 367 ft | 20 kts | 233° |
| 2026-04-24 10:30 | 47.44150 | 0.72793 | 365 ft | 22 kts | 195° |
| 2026-04-24 10:30 | 47.43976 | 0.72724 | 367 ft | 28 kts | 195° |
| 2026-04-24 10:30 | 47.43786 | 0.72647 | 367 ft | 28 kts | 195° |
| 2026-04-24 10:30 | 47.43606 | 0.72575 | 367 ft | 26 kts | 195° |
| 2026-04-24 10:31 | 47.43440 | 0.72508 | 369 ft | 24 kts | 194° |
| 2026-04-24 10:31 | 47.43286 | 0.72447 | 363 ft | 23 kts | 195° |
| 2026-04-24 10:31 | 47.43126 | 0.72382 | 363 ft | 26 kts | 195° |
| 2026-04-24 10:31 | 47.42947 | 0.72310 | 367 ft | 26 kts | 195° |
| 2026-04-24 10:32 | 47.42779 | 0.72242 | 368 ft | 24 kts | 195° |
| 2026-04-24 10:32 | 47.42630 | 0.72183 | 366 ft | 18 kts | 195° |
| 2026-04-24 10:32 | 47.42595 | 0.72093 | 369 ft | 10 kts | 268° |
| 2026-04-24 10:32 | 47.42606 | 0.72005 | 364 ft | 5 kts | 290° |
| 2026-04-24 10:33 | 47.42624 | 0.72009 | 366 ft | 1 kts | 42° |
| 2026-04-24 10:33 | 47.42625 | 0.72014 | 364 ft | 0 kts | 55° |
| 2026-04-24 10:33 | 47.42627 | 0.72018 | 364 ft | 2 kts | 56° |
| 2026-04-24 10:33 | 47.42629 | 0.72021 | 364 ft | 0 kts | 56° |